| time (UTC) | temp F | wind direction | speed knots | gust knots | rain 1hr in | rain 24hr in | rain mn in | humidity % | barometer mb |
| 20260510073003 | 53 | 303 | 2.6 | 0.0 | 0.00 | 0.00 | 0.00 | 100 | 1006.4 |
| 20260510071558 | 53 | 180 | 1.7 | 0.0 | 0.00 | 0.00 | 0.00 | 100 | 1006.4 |
| 20260510070048 | 53 | 180 | 1.7 | 0.0 | 0.00 | 0.00 | 0.00 | 100 | 1006.3 |
| 20260510064640 | 53 | 213 | 2.6 | 0.0 | 0.00 | 0.00 | 0.00 | 100 | 1005.9 |
| 20260510063031 | 53 | 206 | 3.5 | 0.0 | 0.00 | 0.00 | 0.00 | 100 | 1005.7 |
| 20260510061623 | 53 | 213 | 3.5 | 0.0 | 0.00 | 0.00 | 0.00 | 100 | 1005.6 |
| 20260510060013 | 53 | 211 | 4.3 | 0.0 | 0.00 | 0.00 | 0.00 | 100 | 1005.6 |
| 20260510054506 | 53 | 214 | 5.2 | 0.0 | 0.00 | 0.00 | 0.00 | 100 | 1005.4 |
| 20260510053055 | 53 | 202 | 4.3 | 0.0 | 0.00 | 0.00 | 0.00 | 100 | 1005.6 |
| 20260510051547 | 54 | 209 | 3.5 | 0.0 | 0.00 | 0.00 | 0.00 | 100 | 1005.5 |
| 20260510050038 | 54 | 208 | 3.5 | 0.0 | 0.00 | 0.00 | 0.00 | 100 | 1005.7 |
| 20260510044535 | 54 | 211 | 4.3 | 0.0 | 0.00 | 0.00 | 0.00 | 100 | 1005.6 |
| 20260510043023 | 54 | 198 | 4.3 | 0.0 | 0.00 | 0.00 | 0.00 | 100 | 1005.4 |
| 20260510041637 | 54 | 228 | 5.2 | 0.0 | 0.00 | 0.00 | 0.00 | 100 | 1005.1 |
| 20260510034557 | 55 | 211 | 4.3 | 0.0 | 0.00 | 0.00 | 0.18 | 100 | 1004.8 |
| 20260510033144 | 55 | 200 | 4.3 | 0.0 | 0.00 | 0.00 | 0.18 | 100 | 1004.8 |
| 20260510031549 | 55 | 213 | 5.2 | 0.0 | 0.00 | 0.00 | 0.18 | 100 | 1004.4 |
| 20260510030127 | 55 | 248 | 5.2 | 0.0 | 0.00 | 0.00 | 0.18 | 100 | 1004.4 |
| 20260510024516 | 54 | 229 | 4.3 | 0.0 | 0.00 | 0.00 | 0.18 | 100 | 1004.4 |
| 20260510023007 | 54 | 227 | 4.3 | 0.0 | 0.00 | 0.00 | 0.18 | 100 | 1003.9 |
| 20260510021558 | 54 | 223 | 7.8 | 0.0 | 0.00 | 0.00 | 0.18 | 100 | 1004.0 |
| 20260510020050 | 52 | 202 | 2.6 | 0.0 | 0.00 | 0.00 | 0.07 | 100 | 1004.6 |
| 20260510014552 | 51 | 289 | 3.5 | 0.0 | 0.00 | 0.00 | 0.04 | 100 | 1004.5 |
| 20260510013046 | 52 | 296 | 7.0 | 0.0 | 0.00 | 0.00 | 0.01 | 100 | 1004.6 |
| 20260510011529 | 54 | 329 | 9.6 | 0.0 | 0.00 | 0.00 | 0.00 | 100 | 1004.4 |
| 20260510010019 | 61 | 204 | 7.0 | 0.0 | 0.00 | 0.00 | 0.00 | 100 | 1002.5 |
| 20260510004509 | 61 | 197 | 10.4 | 0.0 | 0.00 | 0.00 | 0.00 | 100 | 1002.3 |
| 20260510003101 | 62 | 193 | 12.2 | 0.0 | 0.00 | 0.00 | 0.00 | 100 | 1002.1 |
| 20260510001552 | 62 | 203 | 6.1 | 0.0 | 0.00 | 0.00 | 0.00 | 4 | 1002.2 |
| 20260510000043 | 63 | 192 | 7.0 | 0.0 | 0.00 | 0.00 | 0.00 | 17 | 1002.0 |
| 20260509234634 | 63 | 191 | 7.0 | 0.0 | 0.00 | 0.00 | 0.00 | 23 | 1001.9 |
| 20260509233024 | 63 | 198 | 7.8 | 0.0 | 0.00 | 0.00 | 0.00 | 25 | 1001.9 |
| 20260509230006 | 63 | 194 | 7.8 | 0.0 | 0.00 | 0.00 | 0.00 | 22 | 1002.0 |
| 20260509224658 | 64 | 194 | 7.0 | 0.0 | 0.00 | 0.00 | 0.00 | 28 | 1002.2 |
| 20260509223055 | 64 | 198 | 7.0 | 0.0 | 0.00 | 0.00 | 0.00 | 31 | 1002.0 |
| 20260509221542 | 64 | 226 | 7.8 | 0.0 | 0.00 | 0.00 | 0.00 | 33 | 1002.0 |
| 20260509220031 | 65 | 202 | 7.8 | 0.0 | 0.00 | 0.00 | 0.00 | 40 | 1002.2 |
| 20260509214621 | 64 | 207 | 10.4 | 0.0 | 0.00 | 0.00 | 0.00 | 35 | 1002.0 |
| 20260509213012 | 64 | 193 | 9.6 | 0.0 | 0.00 | 0.00 | 0.00 | 39 | 1002.1 |
| 20260509211504 | 65 | 207 | 9.6 | 0.0 | 0.00 | 0.00 | 0.00 | 42 | 1002.4 |
| 20260509210105 | 65 | 211 | 7.8 | 0.0 | 0.00 | 0.00 | 0.00 | 45 | 1002.4 |
| 20260509204542 | 65 | 200 | 7.8 | 0.0 | 0.00 | 0.00 | 0.00 | 45 | 1002.4 |
| 20260509203035 | 64 | 212 | 7.8 | 0.0 | 0.00 | 0.00 | 0.00 | 38 | 1002.5 |
| 20260509201527 | 64 | 196 | 9.6 | 0.0 | 0.00 | 0.00 | 0.00 | 37 | 1002.5 |
| 20260509200015 | 64 | 196 | 7.8 | 0.0 | 0.00 | 0.00 | 0.00 | 38 | 1002.7 |
| 20260509194504 | 63 | 189 | 8.7 | 0.0 | 0.00 | 0.00 | 0.00 | 32 | 1002.8 |
| 20260509193157 | 63 | 189 | 10.4 | 0.0 | 0.00 | 0.00 | 0.00 | 36 | 1003.2 |
| 20260509191547 | 63 | 195 | 9.6 | 0.0 | 0.00 | 0.00 | 0.00 | 26 | 1003.3 |
| 20260509190046 | 62 | 202 | 8.7 | 0.0 | 0.00 | 0.00 | 0.00 | 29 | 1003.6 |
| 20260509184535 | 62 | 194 | 7.8 | 0.0 | 0.00 | 0.00 | 0.00 | 28 | 1003.9 |
| 20260509183019 | 63 | 198 | 7.0 | 0.0 | 0.00 | 0.00 | 0.00 | 35 | 1004.1 |
| 20260509181511 | 62 | 181 | 9.6 | 0.0 | 0.00 | 0.00 | 0.00 | 28 | 1004.1 |
| 20260509180002 | 61 | 187 | 6.1 | 0.0 | 0.00 | 0.00 | 0.00 | 28 | 1004.3 |
| 20260509174551 | 61 | 192 | 7.0 | 0.0 | 0.00 | 0.00 | 0.00 | 23 | 1004.2 |
| 20260509173108 | 60 | 207 | 8.7 | 0.0 | 0.00 | 0.00 | 0.00 | 19 | 1004.4 |
| 20260509171634 | 59 | 187 | 8.7 | 0.0 | 0.00 | 0.00 | 0.00 | 100 | 1004.6 |
| 20260509170025 | 59 | 204 | 7.0 | 0.0 | 0.00 | 0.00 | 0.00 | 100 | 1004.9 |
| 20260509164617 | 60 | 192 | 5.2 | 0.0 | 0.00 | 0.00 | 0.00 | 10 | 1005.1 |
| 20260509163011 | 59 | 205 | 7.8 | 0.0 | 0.00 | 0.00 | 0.00 | 100 | 1005.3 |
| 20260509161559 | 59 | 189 | 6.1 | 0.0 | 0.00 | 0.00 | 0.00 | 100 | 1005.5 |
| 20260509160050 | 58 | 190 | 7.0 | 0.0 | 0.00 | 0.00 | 0.00 | 100 | 1005.6 |
| 20260509154541 | 58 | 196 | 5.2 | 0.0 | 0.00 | 0.00 | 0.00 | 100 | 1005.7 |
| 20260509153035 | 58 | 200 | 7.8 | 0.0 | 0.00 | 0.00 | 0.00 | 100 | 1006.0 |
| 20260509151523 | 58 | 196 | 5.2 | 0.0 | 0.00 | 0.00 | 0.00 | 100 | 1006.1 |
| 20260509150014 | 57 | 200 | 6.1 | 0.0 | 0.00 | 0.00 | 0.00 | 100 | 1006.2 |
| 20260509144505 | 57 | 191 | 7.0 | 0.0 | 0.00 | 0.00 | 0.00 | 100 | 1006.3 |
| 20260509143158 | 56 | 209 | 7.0 | 0.0 | 0.00 | 0.00 | 0.00 | 100 | 1006.4 |
| 20260509141550 | 55 | 201 | 6.1 | 0.0 | 0.00 | 0.00 | 0.00 | 100 | 1006.5 |
| 20260509140040 | 55 | 194 | 6.1 | 0.0 | 0.00 | 0.00 | 0.00 | 100 | 1006.7 |
| 20260509134531 | 54 | 192 | 7.0 | 0.0 | 0.00 | 0.00 | 0.00 | 100 | 1006.9 |
| 20260509133121 | 53 | 180 | 7.0 | 0.0 | 0.00 | 0.00 | 0.00 | 100 | 1006.9 |
| 20260509131512 | 53 | 184 | 8.7 | 0.0 | 0.00 | 0.00 | 0.00 | 100 | 1007.0 |
| 20260509130009 | 52 | 190 | 7.8 | 0.0 | 0.00 | 0.00 | 0.00 | 100 | 1007.0 |
| 20260509124555 | 50 | 170 | 7.0 | 0.0 | 0.00 | 0.00 | 0.00 | 6 | 1007.2 |
| 20260509123115 | 49 | 180 | 7.8 | 0.0 | 0.00 | 0.00 | 0.00 | 5 | 1007.2 |
| 20260509121540 | 49 | 183 | 7.8 | 0.0 | 0.00 | 0.00 | 0.00 | 6 | 1007.4 |
| 20260509120031 | 48 | 191 | 7.8 | 0.0 | 0.00 | 0.00 | 0.00 | 8 | 1007.3 |
| 20260509114519 | 48 | 191 | 8.7 | 0.0 | 0.00 | 0.00 | 0.00 | 16 | 1007.5 |
| 20260509113012 | 48 | 180 | 9.6 | 0.0 | 0.00 | 0.00 | 0.00 | 16 | 1007.6 |
| 20260509111607 | 47 | 184 | 9.6 | 0.0 | 0.00 | 0.00 | 0.00 | 10 | 1007.5 |
| 20260509110106 | 46 | 188 | 8.7 | 0.0 | 0.00 | 0.00 | 0.00 | 15 | 1007.4 |
| 20260509104554 | 46 | 190 | 9.6 | 0.0 | 0.00 | 0.00 | 0.00 | 10 | 1007.3 |
| 20260509103145 | 46 | 194 | 7.0 | 0.0 | 0.00 | 0.00 | 0.00 | 12 | 1007.4 |
| 20260509101637 | 46 | 188 | 7.8 | 0.0 | 0.00 | 0.00 | 0.00 | 11 | 1007.3 |
| 20260509100027 | 46 | 193 | 8.7 | 0.0 | 0.00 | 0.00 | 0.00 | 1 | 1007.2 |
| 20260509094524 | 45 | 194 | 7.0 | 0.0 | 0.00 | 0.00 | 0.00 | 100 | 1007.1 |
| 20260509093109 | 45 | 186 | 7.0 | 0.0 | 0.00 | 0.00 | 0.00 | 100 | 1007.2 |
| 20260509091559 | 44 | 188 | 7.8 | 0.0 | 0.00 | 0.00 | 0.00 | 100 | 1007.4 |
| 20260509090151 | 44 | 190 | 8.7 | 0.0 | 0.00 | 0.00 | 0.00 | 100 | 1007.6 |
| 20260509084541 | 44 | 192 | 9.6 | 0.0 | 0.00 | 0.00 | 0.00 | 100 | 1007.7 |
| 20260509083032 | 44 | 189 | 8.7 | 0.0 | 0.00 | 0.00 | 0.00 | 100 | 1008.0 |
| 20260509081625 | 45 | 187 | 7.8 | 0.0 | 0.00 | 0.00 | 0.00 | 3 | 1008.2 |
| 20260509080014 | 45 | 182 | 7.8 | 0.0 | 0.00 | 0.00 | 0.00 | 18 | 1008.2 |